Time;durP1;ratioP1;P1;durP2;ratioP2;P2;SDS_P1;SDS_P2;PMS_P1;PMS_P2;Temp;Humidity;BMP_temperature;BMP_pressure;BME280_temperature;BME280_humidity;BME280_pressure;Samples;Min_cycle;Max_cycle;Signal;HPM_P1;HPM_P2
2023/09/27 00:00:57;;;;;;;6.60;5.60;;;15.30;99.90;;;;;;5079636;28;36994;-79
2023/09/27 00:03:23;;;;;;;5.95;5.35;;;15.20;99.90;;;;;;5080709;28;38010;-79
2023/09/27 00:05:50;;;;;;;6.55;5.22;;;15.20;99.90;;;;;;5077207;28;37530;-78
2023/09/27 00:08:16;;;;;;;7.20;5.70;;;15.10;99.90;;;;;;5059729;28;37077;-79
2023/09/27 00:10:42;;;;;;;6.07;5.47;;;15.10;99.90;;;;;;5079404;28;35983;-80
2023/09/27 00:13:09;;;;;;;7.70;6.13;;;15.10;99.90;;;;;;5060043;28;37868;-79
2023/09/27 00:15:36;;;;;;;7.20;5.38;;;15.10;99.90;;;;;;5063191;28;37694;-79
2023/09/27 00:18:02;;;;;;;7.18;5.90;;;15.10;99.90;;;;;;5082459;28;38788;-80
2023/09/27 00:20:28;;;;;;;7.10;5.43;;;15.10;99.90;;;;;;5072723;27;36355;-78
2023/09/27 00:22:56;;;;;;;8.90;6.05;;;15.10;99.90;;;;;;5062329;28;39007;-79
2023/09/27 00:25:22;;;;;;;7.00;5.50;;;15.10;99.90;;;;;;5083571;28;38075;-79
2023/09/27 00:27:48;;;;;;;9.00;5.88;;;15.00;99.90;;;;;;5082809;28;37761;-79
2023/09/27 00:30:15;;;;;;;6.07;5.47;;;15.00;99.90;;;;;;5077195;28;36720;-79
2023/09/27 00:32:44;;;;;;;6.63;4.97;;;15.00;99.90;;;;;;5060254;28;38611;-80
2023/09/27 00:35:14;;;;;;;6.25;5.15;;;15.00;99.90;;;;;;5065432;28;37329;-79
2023/09/27 00:37:40;;;;;;;6.18;5.30;;;15.00;99.90;;;;;;5085901;28;38346;-79
2023/09/27 00:40:10;;;;;;;6.75;5.03;;;14.90;99.90;;;;;;5063896;28;35823;-79
2023/09/27 00:42:37;;;;;;;7.82;5.50;;;14.90;99.90;;;;;;5062618;28;39489;-79
2023/09/27 00:45:04;;;;;;;5.72;5.13;;;14.90;99.90;;;;;;5063485;28;38721;-79
2023/09/27 00:47:31;;;;;;;8.35;5.35;;;14.80;99.90;;;;;;5077864;28;48994;-79
2023/09/27 00:49:57;;;;;;;5.68;5.07;;;14.90;99.90;;;;;;5064156;28;36784;-79
2023/09/27 00:52:23;;;;;;;7.38;5.32;;;14.80;99.90;;;;;;5069040;27;37546;-80
2023/09/27 00:54:51;;;;;;;7.43;5.22;;;14.80;99.90;;;;;;5075975;28;37188;-79
2023/09/27 00:57:18;;;;;;;6.75;5.20;;;14.80;99.90;;;;;;5084639;27;37300;-79
2023/09/27 00:59:45;;;;;;;6.55;5.03;;;14.80;99.90;;;;;;5075588;28;36554;-80
2023/09/27 01:02:12;;;;;;;8.65;5.93;;;14.70;99.90;;;;;;5054799;28;37830;-80
2023/09/27 01:04:43;;;;;;;6.82;5.25;;;14.70;99.90;;;;;;5061610;28;37444;-79
2023/09/27 01:07:09;;;;;;;7.25;5.50;;;14.60;99.90;;;;;;5076759;28;37894;-79
2023/09/27 01:09:37;;;;;;;6.97;5.30;;;14.60;99.90;;;;;;5071599;28;38013;-79
2023/09/27 01:12:04;;;;;;;7.00;5.35;;;14.60;99.90;;;;;;5070850;28;38066;-79
2023/09/27 01:14:30;;;;;;;6.57;5.03;;;14.60;99.90;;;;;;5064403;28;38148;-80
2023/09/27 01:17:08;;;;;;;7.03;5.82;;;14.60;99.90;;;;;;5085751;28;38793;-80
2023/09/27 01:19:34;;;;;;;8.07;5.60;;;14.60;99.90;;;;;;5077334;28;48780;-79
2023/09/27 01:22:00;;;;;;;5.97;5.38;;;14.60;99.90;;;;;;5084795;28;38516;-80
2023/09/27 01:24:28;;;;;;;8.32;6.20;;;14.60;99.90;;;;;;5063029;28;37943;-79
2023/09/27 01:26:56;;;;;;;7.72;5.47;;;14.50;99.90;;;;;;5069107;28;36784;-79
2023/09/27 01:29:22;;;;;;;6.38;5.43;;;14.50;99.90;;;;;;5073166;27;35778;-80
2023/09/27 01:31:48;;;;;;;5.53;5.00;;;14.60;99.90;;;;;;5088109;28;39600;-79
2023/09/27 01:34:14;;;;;;;8.18;5.63;;;14.50;99.90;;;;;;5067047;28;38201;-80
2023/09/27 01:36:40;;;;;;;6.63;5.38;;;14.60;99.90;;;;;;5060662;28;38033;-79
2023/09/27 01:39:07;;;;;;;5.72;4.88;;;14.50;99.90;;;;;;5079400;28;39162;-79
2023/09/27 01:41:33;;;;;;;5.93;5.32;;;14.50;99.90;;;;;;5063374;28;38003;-80
2023/09/27 01:43:59;;;;;;;6.70;5.75;;;14.50;99.90;;;;;;5066204;28;38694;-81
2023/09/27 01:46:25;;;;;;;8.23;6.22;;;14.50;99.90;;;;;;5074071;28;38407;-80
2023/09/27 01:48:51;;;;;;;8.35;5.45;;;14.40;99.90;;;;;;5070587;28;36142;-79
2023/09/27 01:51:17;;;;;;;6.10;5.53;;;14.40;99.90;;;;;;5083572;28;38220;-81
2023/09/27 01:53:43;;;;;;;6.88;5.70;;;14.40;99.90;;;;;;5080414;28;38513;-79
2023/09/27 01:56:09;;;;;;;5.57;5.07;;;14.40;99.90;;;;;;5081315;28;37894;-79
2023/09/27 01:58:36;;;;;;;8.00;6.25;;;14.40;99.90;;;;;;5080886;28;38205;-79
2023/09/27 02:01:02;;;;;;;7.53;5.38;;;14.40;99.90;;;;;;5066946;28;37710;-79
2023/09/27 02:03:28;;;;;;;6.50;5.22;;;14.40;99.90;;;;;;5063352;28;38447;-80
2023/09/27 02:05:54;;;;;;;6.95;5.57;;;14.40;99.90;;;;;;5061642;28;37028;-79
2023/09/27 02:08:20;;;;;;;6.50;5.80;;;14.40;99.90;;;;;;5061296;28;36570;-79
2023/09/27 02:10:50;;;;;;;7.53;6.30;;;14.40;99.90;;;;;;5082291;28;38676;-79
2023/09/27 02:13:16;;;;;;;9.10;6.50;;;14.40;99.90;;;;;;5082100;28;37080;-79
2023/09/27 02:15:42;;;;;;;8.48;6.55;;;14.30;99.90;;;;;;5069450;28;36886;-80
2023/09/27 02:18:08;;;;;;;7.65;6.22;;;14.30;99.90;;;;;;5064433;28;37491;-79
2023/09/27 02:20:34;;;;;;;7.85;6.63;;;14.30;99.90;;;;;;5080149;28;39462;-80
2023/09/27 02:23:01;;;;;;;7.05;6.35;;;14.30;99.90;;;;;;5082256;28;38475;-80
2023/09/27 02:25:27;;;;;;;8.90;7.75;;;14.30;99.90;;;;;;5079739;28;48470;-79
2023/09/27 02:27:53;;;;;;;8.63;7.63;;;14.30;99.90;;;;;;5065960;28;37448;-80
2023/09/27 02:30:19;;;;;;;8.98;7.50;;;14.30;99.90;;;;;;5082593;28;39793;-79
2023/09/27 02:32:45;;;;;;;8.80;7.30;;;14.30;99.90;;;;;;5058725;28;38553;-79
2023/09/27 02:35:19;;;;;;;8.75;7.80;;;14.30;99.90;;;;;;5062691;28;37896;-79
2023/09/27 02:37:45;;;;;;;10.23;7.88;;;14.30;99.90;;;;;;5064099;28;36125;-79
2023/09/27 02:40:11;;;;;;;9.55;8.02;;;14.30;99.90;;;;;;5080300;28;39587;-79
2023/09/27 02:42:40;;;;;;;9.90;8.32;;;14.30;99.90;;;;;;5064545;28;38187;-79
2023/09/27 02:45:08;;;;;;;9.50;8.55;;;14.30;99.90;;;;;;5068668;28;37039;-80
2023/09/27 02:47:35;;;;;;;12.02;8.95;;;14.30;99.90;;;;;;5069175;28;38431;-80
2023/09/27 02:50:09;;;;;;;10.45;8.60;;;14.30;99.90;;;;;;5063013;28;39329;-80
2023/09/27 02:52:36;;;;;;;10.63;8.88;;;14.20;99.90;;;;;;5069220;28;47066;-81
2023/09/27 02:55:02;;;;;;;9.98;8.98;;;14.20;99.90;;;;;;5063018;28;36895;-80
2023/09/27 02:57:28;;;;;;;10.35;9.25;;;14.20;99.90;;;;;;5068318;28;36296;-81
2023/09/27 02:59:55;;;;;;;11.73;9.93;;;14.20;99.90;;;;;;5080754;28;39600;-79
2023/09/27 03:02:23;;;;;;;11.45;9.88;;;14.20;99.90;;;;;;5065753;28;37232;-79
2023/09/27 03:04:49;;;;;;;10.75;9.50;;;14.30;99.90;;;;;;5065249;28;38316;-80
2023/09/27 03:07:16;;;;;;;10.75;9.45;;;14.30;99.90;;;;;;5063409;28;36378;-80
2023/09/27 03:09:42;;;;;;;10.25;9.13;;;14.30;99.90;;;;;;5082063;28;38368;-79
2023/09/27 03:12:08;;;;;;;10.73;9.38;;;14.30;99.90;;;;;;5060903;28;40049;-80
2023/09/27 03:14:34;;;;;;;11.60;9.95;;;14.30;99.90;;;;;;5058987;28;37182;-79
2023/09/27 03:17:01;;;;;;;13.38;10.27;;;14.30;99.90;;;;;;5068553;28;35939;-80
2023/09/27 03:19:27;;;;;;;16.13;12.25;;;14.30;99.90;;;;;;5082976;28;48508;-79
2023/09/27 03:21:53;;;;;;;11.63;10.43;;;14.30;99.90;;;;;;5062919;28;37178;-80
2023/09/27 03:24:19;;;;;;;12.27;9.63;;;14.40;99.90;;;;;;5081182;28;38184;-80
2023/09/27 03:26:46;;;;;;;12.00;9.32;;;14.40;99.90;;;;;;5085965;28;38126;-80
2023/09/27 03:29:12;;;;;;;12.23;10.98;;;14.50;99.90;;;;;;5081803;28;38577;-80
2023/09/27 03:31:38;;;;;;;13.48;10.80;;;14.50;99.90;;;;;;5062657;28;38386;-79
2023/09/27 03:34:05;;;;;;;11.77;10.55;;;14.60;99.90;;;;;;5080294;28;37897;-79
2023/09/27 03:36:31;;;;;;;12.20;10.90;;;14.60;99.90;;;;;;5070631;28;36564;-79
2023/09/27 03:38:57;;;;;;;11.60;10.32;;;14.70;99.90;;;;;;5061974;28;39014;-79
2023/09/27 03:41:24;;;;;;;12.52;11.32;;;14.70;99.90;;;;;;5061886;28;37330;-79
2023/09/27 03:43:50;;;;;;;14.40;12.15;;;14.70;99.90;;;;;;5066119;28;38626;-80
2023/09/27 03:46:16;;;;;;;14.43;11.38;;;14.70;99.90;;;;;;5083501;28;37077;-79
2023/09/27 03:48:42;;;;;;;13.13;11.82;;;14.70;99.90;;;;;;5085057;28;39569;-80
2023/09/27 03:51:08;;;;;;;13.95;12.07;;;14.70;99.90;;;;;;5064516;28;37355;-79
2023/09/27 03:53:35;;;;;;;13.90;12.60;;;14.70;99.90;;;;;;5081526;28;38211;-79
2023/09/27 03:56:01;;;;;;;14.85;13.15;;;14.70;99.90;;;;;;5063407;28;37829;-79
2023/09/27 03:58:27;;;;;;;14.13;12.73;;;14.70;99.90;;;;;;5067330;28;47239;-79
2023/09/27 04:00:53;;;;;;;16.02;14.10;;;14.70;99.90;;;;;;5062508;28;38242;-80
2023/09/27 04:03:20;;;;;;;14.00;12.55;;;14.70;99.90;;;;;;5076254;28;37849;-79
2023/09/27 04:05:46;;;;;;;14.63;13.00;;;14.70;99.90;;;;;;5056097;28;36460;-79
2023/09/27 04:08:12;;;;;;;19.15;16.30;;;14.70;99.90;;;;;;5058013;28;37876;-80
2023/09/27 04:10:38;;;;;;;28.67;20.80;;;14.70;99.90;;;;;;5090022;27;37814;-79
2023/09/27 04:13:05;;;;;;;17.58;14.63;;;14.70;99.90;;;;;;5072016;28;38025;-79
2023/09/27 04:15:35;;;;;;;17.05;14.77;;;14.70;99.90;;;;;;5088020;28;38675;-80
2023/09/27 04:18:01;;;;;;;14.98;13.45;;;14.70;99.90;;;;;;5089606;27;39926;-79
2023/09/27 04:20:27;;;;;;;15.48;13.05;;;14.70;99.90;;;;;;5066425;28;46772;-80
2023/09/27 04:22:53;;;;;;;16.83;15.15;;;14.70;99.90;;;;;;5082360;28;36957;-79
2023/09/27 04:25:20;;;;;;;20.05;15.25;;;14.70;99.90;;;;;;5060227;28;36412;-80
2023/09/27 04:27:49;;;;;;;24.60;19.13;;;14.80;99.90;;;;;;5086761;28;38637;-80
2023/09/27 04:30:19;;;;;;;18.33;16.33;;;14.80;99.90;;;;;;5055010;28;37403;-79
2023/09/27 04:32:47;;;;;;;19.52;15.85;;;14.80;99.90;;;;;;5073923;28;37253;-79
2023/09/27 04:35:14;;;;;;;18.67;15.00;;;14.80;99.90;;;;;;5080565;28;38411;-80
2023/09/27 04:37:41;;;;;;;18.80;16.00;;;14.70;99.90;;;;;;5066401;28;38956;-79
2023/09/27 04:40:11;;;;;;;20.98;18.50;;;14.70;99.90;;;;;;5062649;28;38679;-80
2023/09/27 04:42:41;;;;;;;17.73;15.82;;;14.70;99.90;;;;;;5062354;28;36381;-79
2023/09/27 04:45:10;;;;;;;23.52;19.77;;;14.60;99.90;;;;;;5064510;28;36118;-79
2023/09/27 04:47:36;;;;;;;16.10;14.50;;;14.70;99.90;;;;;;5063042;28;37752;-78
2023/09/27 04:50:03;;;;;;;19.42;16.45;;;14.70;99.90;;;;;;5080634;28;38085;-78
2023/09/27 04:52:29;;;;;;;18.85;16.52;;;14.70;99.90;;;;;;5057922;28;38093;-78
2023/09/27 04:54:56;;;;;;;18.15;16.25;;;14.70;99.90;;;;;;5075371;28;37342;-77
2023/09/27 04:57:23;;;;;;;18.20;15.70;;;14.60;99.90;;;;;;5084744;28;39534;-76
2023/09/27 04:59:52;;;;;;;19.73;17.67;;;14.60;99.90;;;;;;5081667;28;39357;-76
2023/09/27 05:02:19;;;;;;;19.23;15.80;;;14.60;99.90;;;;;;5078915;28;40893;-77
2023/09/27 05:04:47;;;;;;;17.63;15.77;;;14.60;99.90;;;;;;5085087;28;37479;-77
2023/09/27 05:07:18;;;;;;;18.67;16.70;;;14.50;99.90;;;;;;5082188;28;39477;-77
2023/09/27 05:09:44;;;;;;;19.60;16.83;;;14.50;99.90;;;;;;5084176;28;38608;-77
2023/09/27 05:12:12;;;;;;;18.35;16.50;;;14.60;99.90;;;;;;5085894;28;20056;-78
2023/09/27 05:14:39;;;;;;;19.05;16.80;;;14.50;99.90;;;;;;5067733;28;36544;-78
2023/09/27 05:17:06;;;;;;;19.90;17.85;;;14.50;99.90;;;;;;5061023;28;37640;-78
2023/09/27 05:19:32;;;;;;;20.33;17.95;;;14.60;99.90;;;;;;5082908;28;39772;-78
2023/09/27 05:21:59;;;;;;;23.15;18.60;;;14.60;99.90;;;;;;5063605;28;37638;-78
2023/09/27 05:24:25;;;;;;;20.20;17.35;;;14.60;99.90;;;;;;5066990;28;37788;-78
2023/09/27 05:26:51;;;;;;;22.00;19.45;;;14.60;99.90;;;;;;5065179;28;39553;-77
2023/09/27 05:29:18;;;;;;;21.90;18.55;;;14.60;99.90;;;;;;5081718;28;37926;-78
2023/09/27 05:31:45;;;;;;;29.65;21.70;;;14.60;99.90;;;;;;5078636;28;38893;-79
2023/09/27 05:34:11;;;;;;;20.73;17.75;;;14.60;99.90;;;;;;5079936;28;37728;-78
2023/09/27 05:36:37;;;;;;;20.90;18.00;;;14.70;99.90;;;;;;5080991;27;38878;-79
2023/09/27 05:39:08;;;;;;;18.52;16.58;;;14.60;99.90;;;;;;5078411;27;38579;-79
2023/09/27 05:41:35;;;;;;;19.65;17.70;;;14.60;99.90;;;;;;5083672;28;38115;-80
2023/09/27 05:44:02;;;;;;;23.52;16.20;;;14.60;99.90;;;;;;5082807;27;37501;-78
2023/09/27 05:46:29;;;;;;;19.42;17.27;;;14.60;99.90;;;;;;5087781;28;39226;-77
2023/09/27 05:48:55;;;;;;;21.50;19.17;;;14.60;99.90;;;;;;5093929;28;38478;-77
2023/09/27 05:51:22;;;;;;;18.50;16.52;;;14.70;99.90;;;;;;5060566;28;38068;-76
2023/09/27 05:53:52;;;;;;;22.35;19.40;;;14.70;99.90;;;;;;5067500;28;39027;-77
2023/09/27 05:56:18;;;;;;;20.17;17.13;;;14.70;99.90;;;;;;5052518;28;37773;-77
2023/09/27 05:58:45;;;;;;;18.52;16.58;;;14.70;99.90;;;;;;5069172;28;38192;-76
2023/09/27 06:01:12;;;;;;;17.92;15.70;;;14.80;99.90;;;;;;5067156;28;38893;-77
2023/09/27 06:03:41;;;;;;;17.48;15.68;;;14.80;99.90;;;;;;5070752;28;37413;-76
2023/09/27 06:06:07;;;;;;;19.58;16.27;;;14.80;99.90;;;;;;5076341;28;40251;-76
2023/09/27 06:08:33;;;;;;;18.02;16.30;;;14.80;99.90;;;;;;5069571;28;38194;-77
2023/09/27 06:10:59;;;;;;;17.70;15.70;;;14.80;99.90;;;;;;5059392;28;36911;-77
2023/09/27 06:13:27;;;;;;;17.02;15.05;;;14.80;99.90;;;;;;5077257;28;36965;-76
2023/09/27 06:15:54;;;;;;;17.50;15.63;;;14.80;99.90;;;;;;5067698;28;38457;-76
2023/09/27 06:18:21;;;;;;;18.35;16.50;;;14.80;99.90;;;;;;5072952;28;40835;-76
2023/09/27 06:20:47;;;;;;;17.35;15.50;;;14.90;99.90;;;;;;5074142;28;39088;-77
2023/09/27 06:23:14;;;;;;;18.83;16.95;;;14.90;99.90;;;;;;5069447;28;37434;-77
2023/09/27 06:25:43;;;;;;;22.13;18.73;;;15.00;99.90;;;;;;5053770;28;39696;-76
2023/09/27 06:28:18;;;;;;;14.88;13.43;;;15.00;99.90;;;;;;5058711;28;36925;-76
2023/09/27 06:30:44;;;;;;;19.30;16.38;;;15.10;99.90;;;;;;5059044;28;37006;-77
2023/09/27 06:33:12;;;;;;;21.65;18.20;;;15.10;99.90;;;;;;5053815;28;36077;-77
2023/09/27 06:35:39;;;;;;;16.20;14.50;;;15.20;99.90;;;;;;5074451;28;39113;-77
2023/09/27 06:38:05;;;;;;;17.48;15.15;;;15.20;99.90;;;;;;5053806;28;37253;-77
2023/09/27 06:40:32;;;;;;;16.17;14.60;;;15.20;99.90;;;;;;5059990;28;38861;-76
2023/09/27 06:42:59;;;;;;;17.67;14.23;;;15.30;99.90;;;;;;5074259;28;38686;-77
2023/09/27 06:45:27;;;;;;;17.23;15.35;;;15.30;99.90;;;;;;5062611;28;39225;-77
2023/09/27 06:47:54;;;;;;;15.40;14.00;;;15.40;99.90;;;;;;5078447;28;38099;-76
2023/09/27 06:50:21;;;;;;;14.75;13.35;;;15.40;99.90;;;;;;5056395;28;37569;-76
2023/09/27 06:52:48;;;;;;;18.17;15.13;;;15.50;99.90;;;;;;5056326;28;36525;-77
2023/09/27 06:55:16;;;;;;;22.60;19.88;;;15.50;99.90;;;;;;5074713;28;38723;-77
2023/09/27 06:57:49;;;;;;;19.92;17.92;;;15.60;99.90;;;;;;5061508;28;37725;-77
2023/09/27 07:00:18;;;;;;;21.27;19.10;;;15.60;99.90;;;;;;5075926;28;38360;-77
2023/09/27 07:02:51;;;;;;;18.15;16.25;;;15.70;99.90;;;;;;5076277;28;37548;-77
2023/09/27 07:05:20;;;;;;;19.92;16.65;;;15.70;99.90;;;;;;5058853;28;38862;-77
2023/09/27 07:07:48;;;;;;;17.25;15.50;;;15.80;99.90;;;;;;5082005;27;38627;-77
2023/09/27 07:10:14;;;;;;;16.60;15.00;;;15.90;99.90;;;;;;5075444;28;38268;-76
2023/09/27 07:12:41;;;;;;;15.32;13.93;;;15.90;99.90;;;;;;5059199;28;36370;-77
2023/09/27 07:15:17;;;;;;;19.48;17.52;;;16.00;99.90;;;;;;5073150;28;38389;-76
2023/09/27 07:17:44;;;;;;;19.98;17.85;;;16.10;99.90;;;;;;5056790;28;37549;-76
2023/09/27 07:20:27;;;;;;;19.42;16.70;;;16.20;99.90;;;;;;5075990;28;38296;-77
2023/09/27 07:22:56;;;;;;;20.95;18.75;;;16.20;99.90;;;;;;5068309;28;36797;-76
2023/09/27 07:25:23;;;;;;;22.10;19.90;;;16.30;99.90;;;;;;5077262;28;38748;-77
2023/09/27 07:27:51;;;;;;;23.88;18.77;;;16.40;99.90;;;;;;5061315;28;39770;-77
2023/09/27 07:30:26;;;;;;;22.58;18.00;;;16.50;99.90;;;;;;5081434;28;38654;-76
2023/09/27 07:32:54;;;;;;;20.00;17.70;;;16.60;99.90;;;;;;5065604;28;37227;-77
2023/09/27 07:35:21;;;;;;;20.35;17.58;;;16.70;99.90;;;;;;5061981;28;38354;-76
2023/09/27 07:37:47;;;;;;;21.17;18.85;;;16.80;99.90;;;;;;5085156;28;39473;-77
2023/09/27 07:40:15;;;;;;;21.58;18.27;;;16.80;99.90;;;;;;5056230;28;37048;-78
2023/09/27 07:42:45;;;;;;;18.27;16.40;;;16.90;99.90;;;;;;5073099;28;37490;-76
2023/09/27 07:45:25;;;;;;;18.90;17.02;;;17.00;99.90;;;;;;5062040;28;37039;-77
2023/09/27 07:47:52;;;;;;;19.95;17.27;;;17.00;99.90;;;;;;5065151;28;39077;-77
2023/09/27 07:50:28;;;;;;;20.83;17.73;;;17.10;99.90;;;;;;5060485;28;38730;-76
2023/09/27 07:53:03;;;;;;;22.85;18.23;;;17.20;99.90;;;;;;5062934;28;36518;-76
2023/09/27 07:55:36;;;;;;;20.33;17.40;;;17.30;99.90;;;;;;5057219;28;47236;-77
2023/09/27 07:58:03;;;;;;;22.85;19.13;;;17.30;99.90;;;;;;5081977;28;42557;-77
2023/09/27 08:00:30;;;;;;;23.63;19.58;;;17.40;99.90;;;;;;5076253;28;37794;-76
2023/09/27 08:02:59;;;;;;;19.10;17.08;;;17.40;99.90;;;;;;5059657;28;36262;-76
2023/09/27 08:05:26;;;;;;;22.50;18.17;;;17.40;99.90;;;;;;5062587;28;38628;-76
2023/09/27 08:07:52;;;;;;;23.05;17.23;;;17.40;99.90;;;;;;5077938;28;39628;-75
2023/09/27 08:10:19;;;;;;;20.40;18.10;;;17.30;99.90;;;;;;5057211;28;36846;-76
2023/09/27 08:12:45;;;;;;;19.30;16.33;;;17.30;99.90;;;;;;5063135;28;37377;-76
2023/09/27 08:15:12;;;;;;;21.63;19.08;;;17.30;99.90;;;;;;5078003;28;38012;-76
2023/09/27 08:17:39;;;;;;;26.38;20.92;;;17.40;99.90;;;;;;5080730;28;38978;-76
2023/09/27 08:20:09;;;;;;;18.73;16.73;;;17.50;99.90;;;;;;5077568;28;37774;-76
2023/09/27 08:22:39;;;;;;;23.02;18.15;;;17.60;99.90;;;;;;5057477;28;39156;-75
2023/09/27 08:25:14;;;;;;;25.45;22.70;;;17.50;99.90;;;;;;5061554;28;39026;-75
2023/09/27 08:27:41;;;;;;;22.70;20.27;;;17.50;99.90;;;;;;5057701;28;47094;-77
2023/09/27 08:30:09;;;;;;;20.92;18.63;;;17.40;99.90;;;;;;5065053;28;36951;-77
2023/09/27 08:32:35;;;;;;;21.85;19.33;;;17.40;99.90;;;;;;5064829;28;36559;-76
2023/09/27 08:35:05;;;;;;;20.65;18.27;;;17.40;99.90;;;;;;5061796;28;39857;-76
2023/09/27 08:37:31;;;;;;;27.15;20.98;;;17.40;99.90;;;;;;5058347;28;47782;-76
2023/09/27 08:39:57;;;;;;;25.13;17.80;;;17.40;99.90;;;;;;5081034;28;40554;-76
2023/09/27 08:42:24;;;;;;;23.45;18.73;;;17.40;99.90;;;;;;5051569;28;36078;-76
2023/09/27 08:44:53;;;;;;;28.52;18.08;;;17.40;99.90;;;;;;5065683;28;37840;-76
2023/09/27 08:47:19;;;;;;;25.35;18.80;;;17.40;99.90;;;;;;5059531;28;38564;-76
2023/09/27 08:49:50;;;;;;;21.67;18.35;;;17.40;99.90;;;;;;5066848;28;38394;-76
2023/09/27 08:52:17;;;;;;;23.95;18.85;;;17.40;99.90;;;;;;5080080;28;37687;-76
2023/09/27 08:54:43;;;;;;;19.58;17.40;;;17.50;99.90;;;;;;5053232;28;39020;-76
2023/09/27 08:57:10;;;;;;;25.02;19.80;;;17.60;99.90;;;;;;5082095;28;38435;-76
2023/09/27 08:59:38;;;;;;;19.33;16.98;;;17.70;99.90;;;;;;5061315;28;36650;-76
2023/09/27 09:02:05;;;;;;;22.33;17.80;;;17.70;99.90;;;;;;5061520;28;37798;-77
2023/09/27 09:04:35;;;;;;;28.95;20.88;;;17.80;99.90;;;;;;5053687;28;38650;-77
2023/09/27 09:07:06;;;;;;;21.73;17.58;;;17.80;99.90;;;;;;5066937;28;37672;-76
2023/09/27 09:09:33;;;;;;;25.50;18.90;;;17.90;99.90;;;;;;5090437;28;48498;-76
2023/09/27 09:12:08;;;;;;;21.67;16.98;;;17.90;99.90;;;;;;5069126;28;37661;-76
2023/09/27 09:14:43;;;;;;;22.38;15.80;;;17.90;99.90;;;;;;5060091;28;46942;-76
2023/09/27 09:17:17;;;;;;;20.90;17.15;;;18.10;99.90;;;;;;5090950;28;37926;-76
2023/09/27 09:19:44;;;;;;;22.33;18.25;;;18.20;99.90;;;;;;5066600;28;36871;-76
2023/09/27 09:22:12;;;;;;;20.05;17.45;;;18.40;99.90;;;;;;5049771;28;37329;-74
2023/09/27 09:24:41;;;;;;;20.13;16.05;;;18.50;99.90;;;;;;5061679;28;37177;-75
2023/09/27 09:27:15;;;;;;;21.08;15.85;;;18.50;99.90;;;;;;5069733;28;39011;-75
2023/09/27 09:29:48;;;;;;;26.05;17.73;;;18.50;99.90;;;;;;5060170;28;37112;-73
2023/09/27 09:32:22;;;;;;;22.02;16.75;;;18.40;99.90;;;;;;5064600;28;36778;-74
2023/09/27 09:34:50;;;;;;;24.08;16.92;;;18.30;99.90;;;;;;5084171;28;38994;-74
2023/09/27 09:37:29;;;;;;;24.15;18.55;;;18.40;99.90;;;;;;5051972;28;37121;-74
2023/09/27 09:40:15;;;;;;;24.27;16.77;;;18.40;99.90;;;;;;5075541;28;37891;-75
2023/09/27 09:42:42;;;;;;;24.88;16.45;;;18.40;99.90;;;;;;5063109;28;47353;-75
2023/09/27 09:45:12;;;;;;;22.38;16.35;;;18.60;99.90;;;;;;5080503;28;38994;-74
2023/09/27 09:47:40;;;;;;;19.85;14.98;;;18.70;99.90;;;;;;5077487;28;38222;-75
2023/09/27 09:50:08;;;;;;;21.33;15.85;;;18.70;99.90;;;;;;5078947;28;39277;-76
2023/09/27 09:52:38;;;;;;;19.75;15.43;;;19.00;99.90;;;;;;5061017;28;37345;-76
2023/09/27 09:55:11;;;;;;;19.10;14.40;;;19.30;99.90;;;;;;5069241;28;38289;-75
2023/09/27 09:57:41;;;;;;;24.73;15.02;;;19.50;99.90;;;;;;5053752;28;47160;-76
2023/09/27 10:00:16;;;;;;;17.85;12.70;;;19.60;99.90;;;;;;5079752;28;37794;-76
2023/09/27 10:02:51;;;;;;;24.25;13.35;;;19.50;99.90;;;;;;5058623;28;37012;-76
2023/09/27 10:05:19;;;;;;;20.92;14.00;;;19.50;99.90;;;;;;5078920;28;39077;-76
2023/09/27 10:07:46;;;;;;;15.60;10.75;;;19.50;99.90;;;;;;5058686;28;38188;-76
2023/09/27 10:10:15;;;;;;;17.45;11.73;;;19.40;99.90;;;;;;5085511;27;38195;-76
2023/09/27 10:12:46;;;;;;;16.02;9.52;;;19.40;99.90;;;;;;5057962;28;38147;-76
2023/09/27 10:15:17;;;;;;;14.13;8.70;;;19.40;99.90;;;;;;5072622;28;38991;-76
2023/09/27 10:17:43;;;;;;;14.48;8.68;;;19.40;99.90;;;;;;5055977;28;37350;-76
2023/09/27 10:20:13;;;;;;;14.48;8.60;;;19.40;99.90;;;;;;5059756;28;39237;-77
2023/09/27 10:22:44;;;;;;;13.35;8.23;;;19.40;99.90;;;;;;5067400;28;35624;-75
2023/09/27 10:25:30;;;;;;;15.52;8.43;;;19.50;99.90;;;;;;5060360;28;37770;-76
2023/09/27 10:27:59;;;;;;;16.23;8.40;;;19.70;99.90;;;;;;5073482;28;38095;-76
2023/09/27 10:30:26;;;;;;;15.95;8.82;;;20.00;99.90;;;;;;5054936;28;36991;-76
2023/09/27 10:33:17;;;;;;;16.27;9.05;;;20.10;99.90;;;;;;5055143;28;38268;-75
2023/09/27 10:36:07;;;;;;;13.75;8.85;;;20.20;99.90;;;;;;5050380;28;47249;-76
2023/09/27 10:38:43;;;;;;;18.15;9.40;;;20.20;99.90;;;;;;5078647;28;48106;-73
2023/09/27 10:41:29;;;;;;;22.75;9.75;;;20.40;99.90;;;;;;5057234;28;36864;-74
2023/09/27 10:43:56;;;;;;;15.43;9.70;;;20.80;99.90;;;;;;5071479;28;37225;-78
2023/09/27 10:46:22;;;;;;;16.27;8.85;;;21.00;99.90;;;;;;5078006;28;38254;-78
2023/09/27 10:49:00;;;;;;;14.30;8.57;;;21.20;99.90;;;;;;5077982;28;38833;-78
2023/09/27 10:51:26;;;;;;;14.85;8.80;;;21.20;99.90;;;;;;5057773;28;38185;-78
2023/09/27 10:53:55;;;;;;;14.70;9.48;;;21.30;99.90;;;;;;5076720;28;38249;-78
2023/09/27 10:56:22;;;;;;;17.73;8.88;;;21.40;99.90;;;;;;5065968;28;39162;-78
2023/09/27 10:58:52;;;;;;;12.82;8.10;;;21.50;99.90;;;;;;5060890;28;36288;-75
2023/09/27 11:01:22;;;;;;;13.65;8.73;;;21.60;99.90;;;;;;5077138;28;37527;-77
2023/09/27 11:04:02;;;;;;;14.57;7.53;;;21.90;99.90;;;;;;5076989;28;38569;-77
2023/09/27 11:06:31;;;;;;;13.18;7.63;;;22.10;99.90;;;;;;5079813;28;48290;-77
2023/09/27 11:09:12;;;;;;;15.35;8.55;;;22.30;99.90;;;;;;5074428;28;39156;-80
2023/09/27 11:11:42;;;;;;;10.70;8.20;;;22.20;99.90;;;;;;5060295;28;47632;-77
2023/09/27 11:14:08;;;;;;;15.75;7.72;;;22.40;99.90;;;;;;5059693;28;35807;-79
2023/09/27 11:16:35;;;;;;;13.32;7.45;;;22.70;99.90;;;;;;5077399;28;38825;-78
2023/09/27 11:19:02;;;;;;;12.77;7.55;;;22.70;99.90;;;;;;5061854;28;38004;-79
2023/09/27 11:21:29;;;;;;;10.02;6.55;;;22.70;99.90;;;;;;5072834;28;37185;-80
2023/09/27 11:23:56;;;;;;;12.57;8.10;;;23.00;99.90;;;;;;5064681;28;37845;-78
2023/09/27 11:26:24;;;;;;;10.65;7.18;;;23.00;99.90;;;;;;5074070;28;38374;-78
2023/09/27 11:29:04;;;;;;;11.45;7.63;;;23.10;99.90;;;;;;5086532;28;37785;-79
2023/09/27 11:31:32;;;;;;;10.20;6.82;;;23.30;99.90;;;;;;5080444;28;47938;-76
2023/09/27 11:34:13;;;;;;;8.70;6.82;;;23.30;99.90;;;;;;5055475;28;36631;-75
2023/09/27 11:36:43;;;;;;;8.27;6.10;;;23.30;99.90;;;;;;5066589;28;48835;-75
2023/09/27 11:39:10;;;;;;;12.88;7.03;;;23.20;99.90;;;;;;5064660;28;38526;-78
2023/09/27 11:41:37;;;;;;;11.15;8.25;;;23.40;99.90;;;;;;5069472;28;37639;-81
2023/09/27 11:44:17;;;;;;;10.85;7.65;;;23.50;99.90;;;;;;5070913;28;36407;-77
2023/09/27 11:46:44;;;;;;;13.52;6.65;;;23.50;99.90;;;;;;5056557;28;37576;-77
2023/09/27 11:49:10;;;;;;;12.50;7.68;;;23.60;99.90;;;;;;5056797;27;37689;-77
2023/09/27 11:51:37;;;;;;;10.02;7.13;;;23.60;99.90;;;;;;5055956;28;37522;-77
2023/09/27 11:54:04;;;;;;;11.23;6.80;;;23.40;97.40;;;;;;5052825;28;37789;-78
2023/09/27 11:56:34;;;;;;;12.23;7.10;;;23.40;99.90;;;;;;5059170;28;38171;-78
2023/09/27 11:59:02;;;;;;;15.18;6.47;;;23.50;99.90;;;;;;5080894;27;38016;-78
2023/09/27 12:01:28;;;;;;;7.90;5.53;;;23.50;90.00;;;;;;5053689;28;47256;-77
2023/09/27 12:03:55;;;;;;;7.13;5.20;;;23.60;98.30;;;;;;5070255;28;39247;-77
2023/09/27 12:06:21;;;;;;;9.77;5.30;;;23.70;99.90;;;;;;5077011;28;38107;-77
2023/09/27 12:08:48;;;;;;;7.50;4.60;;;23.40;92.50;;;;;;5056712;28;39454;-79
2023/09/27 12:11:14;;;;;;;6.95;5.05;;;23.40;99.90;;;;;;5058801;28;37905;-79
2023/09/27 12:13:40;;;;;;;7.15;4.78;;;23.30;97.00;;;;;;5060786;28;37839;-78
2023/09/27 12:16:06;;;;;;;9.65;5.10;;;23.10;94.90;;;;;;5080983;28;37141;-78
2023/09/27 12:18:33;;;;;;;7.57;4.20;;;22.90;92.00;;;;;;5056159;28;41033;-77
2023/09/27 12:21:00;;;;;;;7.28;5.28;;;23.00;99.90;;;;;;5085483;28;37623;-77
2023/09/27 12:23:26;;;;;;;10.20;4.80;;;22.90;93.40;;;;;;5082809;28;37601;-77
2023/09/27 12:25:57;;;;;;;7.93;4.47;;;23.00;99.90;;;;;;5063868;28;37806;-77
2023/09/27 12:28:23;;;;;;;7.25;4.70;;;23.10;99.90;;;;;;5072762;28;37925;-78
2023/09/27 12:30:50;;;;;;;10.63;5.18;;;23.20;99.90;;;;;;5058565;28;36680;-77
2023/09/27 12:33:16;;;;;;;9.73;4.63;;;23.40;98.80;;;;;;5077533;28;36885;-77
2023/09/27 12:35:46;;;;;;;7.65;4.25;;;23.40;98.60;;;;;;5079632;28;38606;-78
2023/09/27 12:38:12;;;;;;;5.85;4.47;;;23.50;98.10;;;;;;5081296;28;38298;-78